sensor_id;sensor_type;location;lat;lon;timestamp;P1;durP1;ratioP1;P2;durP2;ratioP2
26375;SDS011;30544;42.196;24.336;2022-11-20T00:01:52;68.25;;;42.60;;
26375;SDS011;30544;42.196;24.336;2022-11-20T00:04:19;60.30;;;40.47;;
26375;SDS011;30544;42.196;24.336;2022-11-20T00:06:47;63.20;;;41.85;;
26375;SDS011;30544;42.196;24.336;2022-11-20T00:09:14;60.25;;;41.25;;
26375;SDS011;30544;42.196;24.336;2022-11-20T00:11:40;64.95;;;41.38;;
26375;SDS011;30544;42.196;24.336;2022-11-20T00:14:08;55.90;;;37.33;;
26375;SDS011;30544;42.196;24.336;2022-11-20T00:16:40;64.30;;;41.22;;
26375;SDS011;30544;42.196;24.336;2022-11-20T00:19:07;60.25;;;39.88;;
26375;SDS011;30544;42.196;24.336;2022-11-20T00:21:34;65.20;;;41.25;;
26375;SDS011;30544;42.196;24.336;2022-11-20T00:24:00;62.45;;;39.92;;
26375;SDS011;30544;42.196;24.336;2022-11-20T00:26:29;68.88;;;38.78;;
26375;SDS011;30544;42.196;24.336;2022-11-20T00:28:57;65.47;;;40.38;;
26375;SDS011;30544;42.196;24.336;2022-11-20T00:31:25;63.45;;;40.80;;
26375;SDS011;30544;42.196;24.336;2022-11-20T00:33:56;67.35;;;42.05;;
26375;SDS011;30544;42.196;24.336;2022-11-20T00:36:24;65.85;;;39.97;;
26375;SDS011;30544;42.196;24.336;2022-11-20T00:38:52;67.65;;;40.53;;
26375;SDS011;30544;42.196;24.336;2022-11-20T00:41:22;64.38;;;38.25;;
26375;SDS011;30544;42.196;24.336;2022-11-20T00:43:51;56.80;;;36.63;;
26375;SDS011;30544;42.196;24.336;2022-11-20T00:46:19;64.22;;;37.83;;
26375;SDS011;30544;42.196;24.336;2022-11-20T00:48:47;56.88;;;37.75;;
26375;SDS011;30544;42.196;24.336;2022-11-20T00:51:16;59.65;;;36.20;;
26375;SDS011;30544;42.196;24.336;2022-11-20T00:53:44;56.03;;;34.83;;
26375;SDS011;30544;42.196;24.336;2022-11-20T00:56:12;53.08;;;33.45;;
26375;SDS011;30544;42.196;24.336;2022-11-20T00:58:42;54.05;;;35.45;;
26375;SDS011;30544;42.196;24.336;2022-11-20T01:01:10;60.67;;;38.13;;
26375;SDS011;30544;42.196;24.336;2022-11-20T01:03:39;56.67;;;38.10;;
26375;SDS011;30544;42.196;24.336;2022-11-20T01:06:09;62.13;;;39.70;;
26375;SDS011;30544;42.196;24.336;2022-11-20T01:08:38;72.03;;;43.20;;
26375;SDS011;30544;42.196;24.336;2022-11-20T01:11:06;55.00;;;35.72;;
26375;SDS011;30544;42.196;24.336;2022-11-20T01:13:34;60.30;;;37.83;;
26375;SDS011;30544;42.196;24.336;2022-11-20T01:16:05;60.45;;;39.67;;
26375;SDS011;30544;42.196;24.336;2022-11-20T01:18:33;52.38;;;36.20;;
26375;SDS011;30544;42.196;24.336;2022-11-20T01:21:00;64.03;;;37.47;;
26375;SDS011;30544;42.196;24.336;2022-11-20T01:23:32;63.90;;;37.15;;
26375;SDS011;30544;42.196;24.336;2022-11-20T01:26:02;62.67;;;38.75;;
26375;SDS011;30544;42.196;24.336;2022-11-20T01:28:29;60.33;;;39.80;;
26375;SDS011;30544;42.196;24.336;2022-11-20T01:30:56;70.80;;;42.67;;
26375;SDS011;30544;42.196;24.336;2022-11-20T01:33:23;63.75;;;40.88;;
26375;SDS011;30544;42.196;24.336;2022-11-20T01:35:50;62.50;;;38.78;;
26375;SDS011;30544;42.196;24.336;2022-11-20T01:38:17;64.97;;;39.53;;
26375;SDS011;30544;42.196;24.336;2022-11-20T01:40:45;67.18;;;39.45;;
26375;SDS011;30544;42.196;24.336;2022-11-20T01:43:24;60.63;;;36.03;;
26375;SDS011;30544;42.196;24.336;2022-11-20T01:45:59;59.08;;;38.42;;
26375;SDS011;30544;42.196;24.336;2022-11-20T01:48:32;60.78;;;37.13;;
26375;SDS011;30544;42.196;24.336;2022-11-20T01:51:02;60.17;;;37.60;;
26375;SDS011;30544;42.196;24.336;2022-11-20T01:53:32;64.65;;;40.83;;
26375;SDS011;30544;42.196;24.336;2022-11-20T01:56:06;61.67;;;39.45;;
26375;SDS011;30544;42.196;24.336;2022-11-20T01:58:40;65.63;;;41.13;;
26375;SDS011;30544;42.196;24.336;2022-11-20T02:01:10;64.65;;;37.75;;
26375;SDS011;30544;42.196;24.336;2022-11-20T02:03:37;62.17;;;37.80;;
26375;SDS011;30544;42.196;24.336;2022-11-20T02:06:10;62.42;;;39.22;;
26375;SDS011;30544;42.196;24.336;2022-11-20T02:08:41;69.85;;;38.67;;
26375;SDS011;30544;42.196;24.336;2022-11-20T02:11:08;64.43;;;42.20;;
26375;SDS011;30544;42.196;24.336;2022-11-20T02:13:35;63.25;;;37.95;;
26375;SDS011;30544;42.196;24.336;2022-11-20T02:16:13;69.72;;;39.42;;
26375;SDS011;30544;42.196;24.336;2022-11-20T02:18:42;63.92;;;39.65;;
26375;SDS011;30544;42.196;24.336;2022-11-20T02:21:13;73.45;;;43.08;;
26375;SDS011;30544;42.196;24.336;2022-11-20T02:26:40;63.33;;;40.72;;
26375;SDS011;30544;42.196;24.336;2022-11-20T02:29:10;66.35;;;39.33;;
26375;SDS011;30544;42.196;24.336;2022-11-20T02:31:38;68.80;;;42.90;;
26375;SDS011;30544;42.196;24.336;2022-11-20T02:34:07;73.82;;;44.13;;
26375;SDS011;30544;42.196;24.336;2022-11-20T02:36:34;71.68;;;41.65;;
26375;SDS011;30544;42.196;24.336;2022-11-20T02:39:03;73.15;;;42.78;;
26375;SDS011;30544;42.196;24.336;2022-11-20T02:41:32;70.20;;;43.22;;
26375;SDS011;30544;42.196;24.336;2022-11-20T02:43:59;73.70;;;42.42;;
26375;SDS011;30544;42.196;24.336;2022-11-20T02:46:26;58.70;;;37.60;;
26375;SDS011;30544;42.196;24.336;2022-11-20T02:48:53;74.00;;;42.20;;
26375;SDS011;30544;42.196;24.336;2022-11-20T02:51:20;71.82;;;37.65;;
26375;SDS011;30544;42.196;24.336;2022-11-20T02:53:47;56.88;;;38.15;;
26375;SDS011;30544;42.196;24.336;2022-11-20T02:56:14;63.35;;;38.63;;
26375;SDS011;30544;42.196;24.336;2022-11-20T02:58:43;67.10;;;40.53;;
26375;SDS011;30544;42.196;24.336;2022-11-20T03:01:10;80.07;;;43.63;;
26375;SDS011;30544;42.196;24.336;2022-11-20T03:03:36;65.90;;;37.38;;
26375;SDS011;30544;42.196;24.336;2022-11-20T03:06:03;73.22;;;42.03;;
26375;SDS011;30544;42.196;24.336;2022-11-20T03:08:30;64.63;;;35.65;;
26375;SDS011;30544;42.196;24.336;2022-11-20T03:11:01;66.40;;;38.40;;
26375;SDS011;30544;42.196;24.336;2022-11-20T03:13:29;67.97;;;40.40;;
26375;SDS011;30544;42.196;24.336;2022-11-20T03:15:57;61.42;;;39.28;;
26375;SDS011;30544;42.196;24.336;2022-11-20T03:18:27;55.70;;;36.70;;
26375;SDS011;30544;42.196;24.336;2022-11-20T03:20:56;66.72;;;40.20;;
26375;SDS011;30544;42.196;24.336;2022-11-20T03:23:23;64.35;;;39.45;;
26375;SDS011;30544;42.196;24.336;2022-11-20T03:25:52;73.90;;;39.30;;
26375;SDS011;30544;42.196;24.336;2022-11-20T03:28:19;61.95;;;36.85;;
26375;SDS011;30544;42.196;24.336;2022-11-20T03:30:46;57.22;;;33.47;;
26375;SDS011;30544;42.196;24.336;2022-11-20T03:33:14;59.75;;;36.83;;
26375;SDS011;30544;42.196;24.336;2022-11-20T03:35:41;64.40;;;35.75;;
26375;SDS011;30544;42.196;24.336;2022-11-20T03:38:07;60.10;;;35.33;;
26375;SDS011;30544;42.196;24.336;2022-11-20T03:40:34;62.58;;;37.15;;
26375;SDS011;30544;42.196;24.336;2022-11-20T03:43:01;65.43;;;37.05;;
26375;SDS011;30544;42.196;24.336;2022-11-20T03:45:28;58.95;;;29.80;;
26375;SDS011;30544;42.196;24.336;2022-11-20T03:47:55;52.15;;;31.48;;
26375;SDS011;30544;42.196;24.336;2022-11-20T03:50:23;50.78;;;32.08;;
26375;SDS011;30544;42.196;24.336;2022-11-20T03:52:50;60.95;;;33.88;;
26375;SDS011;30544;42.196;24.336;2022-11-20T03:55:17;46.70;;;27.30;;
26375;SDS011;30544;42.196;24.336;2022-11-20T03:57:44;43.15;;;25.60;;
26375;SDS011;30544;42.196;24.336;2022-11-20T04:00:11;39.67;;;25.15;;
26375;SDS011;30544;42.196;24.336;2022-11-20T04:02:39;39.22;;;25.65;;
26375;SDS011;30544;42.196;24.336;2022-11-20T04:05:06;42.30;;;25.65;;
26375;SDS011;30544;42.196;24.336;2022-11-20T04:07:34;47.17;;;26.20;;
26375;SDS011;30544;42.196;24.336;2022-11-20T04:10:05;34.60;;;23.33;;
26375;SDS011;30544;42.196;24.336;2022-11-20T04:12:32;40.17;;;23.23;;
26375;SDS011;30544;42.196;24.336;2022-11-20T04:14:59;33.72;;;23.55;;
26375;SDS011;30544;42.196;24.336;2022-11-20T04:17:26;40.22;;;23.25;;
26375;SDS011;30544;42.196;24.336;2022-11-20T04:19:52;36.63;;;19.95;;
26375;SDS011;30544;42.196;24.336;2022-11-20T04:22:19;37.28;;;21.90;;
26375;SDS011;30544;42.196;24.336;2022-11-20T04:24:47;32.40;;;20.75;;
26375;SDS011;30544;42.196;24.336;2022-11-20T04:27:16;43.92;;;24.15;;
26375;SDS011;30544;42.196;24.336;2022-11-20T04:29:43;57.53;;;26.90;;
26375;SDS011;30544;42.196;24.336;2022-11-20T04:32:10;49.72;;;25.05;;
26375;SDS011;30544;42.196;24.336;2022-11-20T04:34:37;62.55;;;29.48;;
26375;SDS011;30544;42.196;24.336;2022-11-20T04:37:03;53.42;;;26.30;;
26375;SDS011;30544;42.196;24.336;2022-11-20T04:39:30;39.00;;;22.88;;
26375;SDS011;30544;42.196;24.336;2022-11-20T04:41:59;37.75;;;22.25;;
26375;SDS011;30544;42.196;24.336;2022-11-20T04:44:43;32.58;;;21.60;;
26375;SDS011;30544;42.196;24.336;2022-11-20T04:47:12;42.22;;;24.77;;
26375;SDS011;30544;42.196;24.336;2022-11-20T04:49:38;41.08;;;24.83;;
26375;SDS011;30544;42.196;24.336;2022-11-20T04:52:05;39.53;;;24.20;;
26375;SDS011;30544;42.196;24.336;2022-11-20T04:54:32;39.63;;;23.70;;
26375;SDS011;30544;42.196;24.336;2022-11-20T04:57:02;37.83;;;23.27;;
26375;SDS011;30544;42.196;24.336;2022-11-20T04:59:29;43.00;;;25.17;;
26375;SDS011;30544;42.196;24.336;2022-11-20T05:01:58;42.75;;;26.23;;
26375;SDS011;30544;42.196;24.336;2022-11-20T06:26:47;51.55;;;31.42;;
26375;SDS011;30544;42.196;24.336;2022-11-20T06:29:14;55.30;;;30.23;;
26375;SDS011;30544;42.196;24.336;2022-11-20T06:31:40;62.05;;;33.13;;
26375;SDS011;30544;42.196;24.336;2022-11-20T06:34:08;56.60;;;32.28;;
26375;SDS011;30544;42.196;24.336;2022-11-20T06:36:34;60.17;;;34.75;;
26375;SDS011;30544;42.196;24.336;2022-11-20T06:39:01;81.45;;;42.78;;
26375;SDS011;30544;42.196;24.336;2022-11-20T06:41:28;245.85;;;82.45;;
26375;SDS011;30544;42.196;24.336;2022-11-20T06:43:56;71.28;;;33.47;;
26375;SDS011;30544;42.196;24.336;2022-11-20T06:46:23;57.38;;;32.75;;
26375;SDS011;30544;42.196;24.336;2022-11-20T06:48:50;41.78;;;22.73;;
26375;SDS011;30544;42.196;24.336;2022-11-20T06:51:17;34.58;;;18.67;;
26375;SDS011;30544;42.196;24.336;2022-11-20T06:53:44;43.25;;;20.35;;
26375;SDS011;30544;42.196;24.336;2022-11-20T06:56:11;38.30;;;21.15;;
26375;SDS011;30544;42.196;24.336;2022-11-20T06:58:37;33.42;;;18.20;;
26375;SDS011;30544;42.196;24.336;2022-11-20T07:01:06;30.95;;;15.93;;
26375;SDS011;30544;42.196;24.336;2022-11-20T07:03:36;41.28;;;19.05;;
26375;SDS011;30544;42.196;24.336;2022-11-20T07:06:03;65.38;;;28.52;;
26375;SDS011;30544;42.196;24.336;2022-11-20T07:08:31;30.85;;;14.80;;
26375;SDS011;30544;42.196;24.336;2022-11-20T07:24:16;24.88;;;11.90;;
26375;SDS011;30544;42.196;24.336;2022-11-20T07:26:45;24.83;;;9.57;;
26375;SDS011;30544;42.196;24.336;2022-11-20T07:29:12;39.42;;;19.10;;
26375;SDS011;30544;42.196;24.336;2022-11-20T07:31:39;30.67;;;15.80;;
26375;SDS011;30544;42.196;24.336;2022-11-20T07:34:05;24.67;;;11.07;;
26375;SDS011;30544;42.196;24.336;2022-11-20T07:36:32;27.88;;;12.13;;
26375;SDS011;30544;42.196;24.336;2022-11-20T07:38:59;23.00;;;10.95;;
26375;SDS011;30544;42.196;24.336;2022-11-20T07:41:27;31.27;;;16.50;;
26375;SDS011;30544;42.196;24.336;2022-11-20T07:43:54;35.03;;;18.40;;
26375;SDS011;30544;42.196;24.336;2022-11-20T07:46:21;36.40;;;19.40;;
26375;SDS011;30544;42.196;24.336;2022-11-20T07:48:47;40.30;;;20.08;;
26375;SDS011;30544;42.196;24.336;2022-11-20T07:51:14;37.28;;;18.75;;
26375;SDS011;30544;42.196;24.336;2022-11-20T07:53:41;36.83;;;17.33;;
26375;SDS011;30544;42.196;24.336;2022-11-20T07:56:07;89.85;;;51.05;;
26375;SDS011;30544;42.196;24.336;2022-11-20T07:58:36;57.03;;;31.00;;
26375;SDS011;30544;42.196;24.336;2022-11-20T08:01:03;39.35;;;18.70;;
26375;SDS011;30544;42.196;24.336;2022-11-20T08:03:30;37.17;;;17.25;;
26375;SDS011;30544;42.196;24.336;2022-11-20T08:05:58;34.60;;;17.75;;
26375;SDS011;30544;42.196;24.336;2022-11-20T08:08:25;38.88;;;17.52;;
26375;SDS011;30544;42.196;24.336;2022-11-20T08:10:52;31.17;;;14.68;;
26375;SDS011;30544;42.196;24.336;2022-11-20T08:13:40;28.27;;;14.40;;
26375;SDS011;30544;42.196;24.336;2022-11-20T08:16:24;38.47;;;18.27;;
26375;SDS011;30544;42.196;24.336;2022-11-20T08:18:51;43.58;;;20.08;;
26375;SDS011;30544;42.196;24.336;2022-11-20T08:21:18;26.17;;;9.43;;
26375;SDS011;30544;42.196;24.336;2022-11-20T08:23:44;16.65;;;9.15;;
26375;SDS011;30544;42.196;24.336;2022-11-20T08:26:11;22.13;;;8.18;;
26375;SDS011;30544;42.196;24.336;2022-11-20T08:28:38;22.80;;;8.43;;
26375;SDS011;30544;42.196;24.336;2022-11-20T08:31:06;22.30;;;7.53;;
26375;SDS011;30544;42.196;24.336;2022-11-20T08:33:35;27.42;;;9.30;;
26375;SDS011;30544;42.196;24.336;2022-11-20T08:36:02;24.55;;;7.32;;
26375;SDS011;30544;42.196;24.336;2022-11-20T08:38:30;18.77;;;7.65;;
26375;SDS011;30544;42.196;24.336;2022-11-20T08:40:57;20.77;;;7.90;;
26375;SDS011;30544;42.196;24.336;2022-11-20T08:43:38;17.73;;;8.63;;
26375;SDS011;30544;42.196;24.336;2022-11-20T08:46:06;21.02;;;5.82;;
26375;SDS011;30544;42.196;24.336;2022-11-20T08:48:33;16.35;;;7.22;;
26375;SDS011;30544;42.196;24.336;2022-11-20T08:51:00;17.88;;;6.80;;
26375;SDS011;30544;42.196;24.336;2022-11-20T08:53:26;18.98;;;7.00;;
26375;SDS011;30544;42.196;24.336;2022-11-20T08:55:53;29.58;;;7.18;;
26375;SDS011;30544;42.196;24.336;2022-11-20T08:58:20;19.40;;;7.25;;
26375;SDS011;30544;42.196;24.336;2022-11-20T09:00:47;27.77;;;8.75;;
26375;SDS011;30544;42.196;24.336;2022-11-20T09:03:15;27.00;;;8.45;;
26375;SDS011;30544;42.196;24.336;2022-11-20T09:05:42;40.03;;;10.82;;
26375;SDS011;30544;42.196;24.336;2022-11-20T09:08:08;22.23;;;9.32;;
26375;SDS011;30544;42.196;24.336;2022-11-20T09:10:35;18.15;;;7.85;;
26375;SDS011;30544;42.196;24.336;2022-11-20T09:13:04;16.98;;;7.20;;
26375;SDS011;30544;42.196;24.336;2022-11-20T09:15:31;24.05;;;7.22;;
26375;SDS011;30544;42.196;24.336;2022-11-20T09:17:59;17.60;;;6.68;;
26375;SDS011;30544;42.196;24.336;2022-11-20T09:20:29;15.45;;;6.18;;
26375;SDS011;30544;42.196;24.336;2022-11-20T09:22:56;21.63;;;6.40;;
26375;SDS011;30544;42.196;24.336;2022-11-20T09:25:24;19.52;;;6.88;;
26375;SDS011;30544;42.196;24.336;2022-11-20T09:27:54;21.00;;;7.55;;
26375;SDS011;30544;42.196;24.336;2022-11-20T09:30:21;21.48;;;7.07;;
26375;SDS011;30544;42.196;24.336;2022-11-20T09:32:48;19.05;;;6.90;;
26375;SDS011;30544;42.196;24.336;2022-11-20T09:35:14;19.98;;;7.70;;
26375;SDS011;30544;42.196;24.336;2022-11-20T09:37:44;15.65;;;6.50;;
26375;SDS011;30544;42.196;24.336;2022-11-20T09:40:17;21.52;;;6.38;;
26375;SDS011;30544;42.196;24.336;2022-11-20T09:42:47;17.52;;;7.15;;
26375;SDS011;30544;42.196;24.336;2022-11-20T09:45:23;25.80;;;7.75;;
26375;SDS011;30544;42.196;24.336;2022-11-20T09:48:00;28.48;;;7.68;;
26375;SDS011;30544;42.196;24.336;2022-11-20T09:50:35;18.58;;;5.90;;
26375;SDS011;30544;42.196;24.336;2022-11-20T09:53:16;19.13;;;6.95;;
26375;SDS011;30544;42.196;24.336;2022-11-20T09:55:51;37.42;;;15.70;;
26375;SDS011;30544;42.196;24.336;2022-11-20T09:58:21;29.30;;;12.57;;
26375;SDS011;30544;42.196;24.336;2022-11-20T10:00:54;31.05;;;11.68;;
26375;SDS011;30544;42.196;24.336;2022-11-20T10:03:29;25.77;;;9.25;;
26375;SDS011;30544;42.196;24.336;2022-11-20T10:06:04;26.15;;;11.00;;
26375;SDS011;30544;42.196;24.336;2022-11-20T10:08:39;24.65;;;8.07;;
26375;SDS011;30544;42.196;24.336;2022-11-20T10:11:12;24.52;;;8.40;;
26375;SDS011;30544;42.196;24.336;2022-11-20T10:13:50;24.13;;;8.77;;
26375;SDS011;30544;42.196;24.336;2022-11-20T10:16:26;22.90;;;5.90;;
26375;SDS011;30544;42.196;24.336;2022-11-20T10:19:06;14.85;;;3.47;;
26375;SDS011;30544;42.196;24.336;2022-11-20T10:21:50;44.03;;;14.98;;
26375;SDS011;30544;42.196;24.336;2022-11-20T10:24:29;29.25;;;10.98;;
26375;SDS011;30544;42.196;24.336;2022-11-20T10:27:25;12.73;;;5.60;;
26375;SDS011;30544;42.196;24.336;2022-11-20T10:30:08;23.25;;;7.97;;
26375;SDS011;30544;42.196;24.336;2022-11-20T10:32:37;22.73;;;7.35;;
26375;SDS011;30544;42.196;24.336;2022-11-20T10:35:07;24.98;;;6.55;;
26375;SDS011;30544;42.196;24.336;2022-11-20T10:37:44;26.48;;;7.18;;
26375;SDS011;30544;42.196;24.336;2022-11-20T10:40:20;20.70;;;6.95;;
26375;SDS011;30544;42.196;24.336;2022-11-20T10:42:54;34.45;;;18.15;;
26375;SDS011;30544;42.196;24.336;2022-11-20T10:45:32;62.40;;;37.80;;
26375;SDS011;30544;42.196;24.336;2022-11-20T10:48:10;37.72;;;19.33;;
26375;SDS011;30544;42.196;24.336;2022-11-20T10:51:03;23.58;;;11.73;;
26375;SDS011;30544;42.196;24.336;2022-11-20T10:53:47;19.50;;;7.30;;
26375;SDS011;30544;42.196;24.336;2022-11-20T10:56:24;18.80;;;5.68;;
26375;SDS011;30544;42.196;24.336;2022-11-20T10:59:03;14.57;;;5.20;;
26375;SDS011;30544;42.196;24.336;2022-11-20T11:01:39;16.90;;;5.43;;
26375;SDS011;30544;42.196;24.336;2022-11-20T11:04:13;17.23;;;5.35;;
26375;SDS011;30544;42.196;24.336;2022-11-20T11:06:49;19.88;;;6.70;;
26375;SDS011;30544;42.196;24.336;2022-11-20T11:09:21;24.42;;;8.88;;
26375;SDS011;30544;42.196;24.336;2022-11-20T11:11:57;43.65;;;10.77;;
26375;SDS011;30544;42.196;24.336;2022-11-20T11:14:24;24.38;;;6.32;;
26375;SDS011;30544;42.196;24.336;2022-11-20T11:16:52;24.85;;;7.32;;
26375;SDS011;30544;42.196;24.336;2022-11-20T11:19:20;40.42;;;19.38;;
26375;SDS011;30544;42.196;24.336;2022-11-20T11:21:47;35.90;;;13.38;;
26375;SDS011;30544;42.196;24.336;2022-11-20T11:24:19;29.15;;;8.07;;
26375;SDS011;30544;42.196;24.336;2022-11-20T11:26:51;43.08;;;4.82;;
26375;SDS011;30544;42.196;24.336;2022-11-20T11:41:22;22.80;;;3.40;;
26375;SDS011;30544;42.196;24.336;2022-11-20T11:43:52;16.13;;;2.75;;
26375;SDS011;30544;42.196;24.336;2022-11-20T11:46:38;33.25;;;4.35;;
26375;SDS011;30544;42.196;24.336;2022-11-20T11:49:15;27.83;;;3.35;;
26375;SDS011;30544;42.196;24.336;2022-11-20T11:51:46;24.63;;;4.10;;
26375;SDS011;30544;42.196;24.336;2022-11-20T11:54:23;21.85;;;3.70;;
26375;SDS011;30544;42.196;24.336;2022-11-20T11:57:00;24.13;;;4.18;;
26375;SDS011;30544;42.196;24.336;2022-11-20T11:59:34;23.10;;;3.85;;
26375;SDS011;30544;42.196;24.336;2022-11-20T12:02:11;24.58;;;3.63;;
26375;SDS011;30544;42.196;24.336;2022-11-20T12:04:52;23.92;;;3.97;;
26375;SDS011;30544;42.196;24.336;2022-11-20T12:07:27;27.50;;;3.90;;
26375;SDS011;30544;42.196;24.336;2022-11-20T12:10:04;26.40;;;3.78;;
26375;SDS011;30544;42.196;24.336;2022-11-20T12:12:34;27.50;;;3.90;;
26375;SDS011;30544;42.196;24.336;2022-11-20T12:15:07;25.35;;;3.72;;
26375;SDS011;30544;42.196;24.336;2022-11-20T12:17:37;29.50;;;5.68;;
26375;SDS011;30544;42.196;24.336;2022-11-20T12:20:05;16.67;;;3.33;;
26375;SDS011;30544;42.196;24.336;2022-11-20T12:22:40;31.40;;;5.15;;
26375;SDS011;30544;42.196;24.336;2022-11-20T12:25:14;22.13;;;4.40;;
26375;SDS011;30544;42.196;24.336;2022-11-20T12:27:56;26.67;;;3.83;;
26375;SDS011;30544;42.196;24.336;2022-11-20T12:30:47;21.42;;;3.65;;
26375;SDS011;30544;42.196;24.336;2022-11-20T12:33:26;25.60;;;4.13;;
26375;SDS011;30544;42.196;24.336;2022-11-20T12:36:06;26.83;;;3.58;;
26375;SDS011;30544;42.196;24.336;2022-11-20T12:38:47;29.15;;;4.18;;
26375;SDS011;30544;42.196;24.336;2022-11-20T12:41:41;19.60;;;4.25;;
26375;SDS011;30544;42.196;24.336;2022-11-20T12:47:38;22.58;;;4.80;;
26375;SDS011;30544;42.196;24.336;2022-11-20T12:50:27;32.25;;;4.93;;
26375;SDS011;30544;42.196;24.336;2022-11-20T12:53:02;23.52;;;4.22;;
26375;SDS011;30544;42.196;24.336;2022-11-20T12:55:42;18.15;;;4.10;;
26375;SDS011;30544;42.196;24.336;2022-11-20T12:58:19;24.20;;;4.10;;
26375;SDS011;30544;42.196;24.336;2022-11-20T13:00:56;23.15;;;2.90;;
26375;SDS011;30544;42.196;24.336;2022-11-20T13:03:31;19.80;;;3.38;;
26375;SDS011;30544;42.196;24.336;2022-11-20T13:06:08;18.88;;;3.55;;
26375;SDS011;30544;42.196;24.336;2022-11-20T13:08:41;18.35;;;3.17;;
26375;SDS011;30544;42.196;24.336;2022-11-20T13:11:13;22.88;;;3.72;;
26375;SDS011;30544;42.196;24.336;2022-11-20T13:13:45;36.47;;;6.03;;
26375;SDS011;30544;42.196;24.336;2022-11-20T13:16:29;23.90;;;4.90;;
26375;SDS011;30544;42.196;24.336;2022-11-20T13:19:03;23.10;;;5.15;;
26375;SDS011;30544;42.196;24.336;2022-11-20T13:21:37;25.52;;;6.68;;
26375;SDS011;30544;42.196;24.336;2022-11-20T13:24:06;29.05;;;6.47;;
26375;SDS011;30544;42.196;24.336;2022-11-20T13:26:33;36.33;;;6.80;;
26375;SDS011;30544;42.196;24.336;2022-11-20T13:29:08;17.27;;;4.80;;
26375;SDS011;30544;42.196;24.336;2022-11-20T13:31:39;20.80;;;4.25;;
26375;SDS011;30544;42.196;24.336;2022-11-20T13:34:10;13.02;;;2.53;;
26375;SDS011;30544;42.196;24.336;2022-11-20T13:36:48;10.48;;;2.78;;
26375;SDS011;30544;42.196;24.336;2022-11-20T13:39:23;9.60;;;2.83;;
26375;SDS011;30544;42.196;24.336;2022-11-20T13:41:53;10.45;;;2.10;;
26375;SDS011;30544;42.196;24.336;2022-11-20T13:44:23;11.77;;;3.03;;
26375;SDS011;30544;42.196;24.336;2022-11-20T13:46:53;9.93;;;2.05;;
26375;SDS011;30544;42.196;24.336;2022-11-20T13:49:21;8.30;;;2.20;;
26375;SDS011;30544;42.196;24.336;2022-11-20T13:51:54;8.40;;;2.05;;
26375;SDS011;30544;42.196;24.336;2022-11-20T13:54:43;6.43;;;2.60;;
26375;SDS011;30544;42.196;24.336;2022-11-20T13:57:31;5.88;;;2.25;;
26375;SDS011;30544;42.196;24.336;2022-11-20T14:00:11;7.95;;;1.55;;
26375;SDS011;30544;42.196;24.336;2022-11-20T14:02:42;8.38;;;1.85;;
26375;SDS011;30544;42.196;24.336;2022-11-20T14:05:14;4.28;;;1.98;;
26375;SDS011;30544;42.196;24.336;2022-11-20T14:07:46;8.05;;;2.20;;
26375;SDS011;30544;42.196;24.336;2022-11-20T14:10:20;6.88;;;2.20;;
26375;SDS011;30544;42.196;24.336;2022-11-20T14:12:49;11.82;;;3.50;;
26375;SDS011;30544;42.196;24.336;2022-11-20T14:15:26;9.90;;;3.10;;
26375;SDS011;30544;42.196;24.336;2022-11-20T14:17:56;6.95;;;2.42;;
26375;SDS011;30544;42.196;24.336;2022-11-20T14:20:23;6.38;;;2.20;;
26375;SDS011;30544;42.196;24.336;2022-11-20T14:22:53;4.50;;;1.60;;
26375;SDS011;30544;42.196;24.336;2022-11-20T14:25:21;7.10;;;1.75;;
26375;SDS011;30544;42.196;24.336;2022-11-20T14:27:55;7.03;;;2.85;;
26375;SDS011;30544;42.196;24.336;2022-11-20T14:30:24;12.07;;;5.32;;
26375;SDS011;30544;42.196;24.336;2022-11-20T14:32:53;10.63;;;4.63;;
26375;SDS011;30544;42.196;24.336;2022-11-20T14:35:24;8.93;;;4.22;;
26375;SDS011;30544;42.196;24.336;2022-11-20T14:37:53;8.95;;;2.70;;
26375;SDS011;30544;42.196;24.336;2022-11-20T14:40:22;5.30;;;2.78;;
26375;SDS011;30544;42.196;24.336;2022-11-20T14:42:54;5.20;;;1.70;;
26375;SDS011;30544;42.196;24.336;2022-11-20T14:45:24;9.35;;;3.40;;
26375;SDS011;30544;42.196;24.336;2022-11-20T14:47:52;2.53;;;1.33;;
26375;SDS011;30544;42.196;24.336;2022-11-20T14:50:22;7.20;;;1.77;;
26375;SDS011;30544;42.196;24.336;2022-11-20T14:52:52;3.65;;;1.60;;
26375;SDS011;30544;42.196;24.336;2022-11-20T14:55:30;6.43;;;2.30;;
26375;SDS011;30544;42.196;24.336;2022-11-20T14:57:58;21.75;;;7.95;;
26375;SDS011;30544;42.196;24.336;2022-11-20T15:00:28;13.10;;;6.25;;
26375;SDS011;30544;42.196;24.336;2022-11-20T15:02:55;18.77;;;6.97;;
26375;SDS011;30544;42.196;24.336;2022-11-20T15:05:24;12.27;;;4.90;;
26375;SDS011;30544;42.196;24.336;2022-11-20T15:08:03;8.82;;;4.15;;
26375;SDS011;30544;42.196;24.336;2022-11-20T15:10:32;10.40;;;3.67;;
26375;SDS011;30544;42.196;24.336;2022-11-20T15:12:59;6.82;;;3.22;;
26375;SDS011;30544;42.196;24.336;2022-11-20T15:15:29;7.43;;;3.47;;
26375;SDS011;30544;42.196;24.336;2022-11-20T15:17:59;10.80;;;5.10;;
26375;SDS011;30544;42.196;24.336;2022-11-20T15:20:28;41.25;;;25.67;;
26375;SDS011;30544;42.196;24.336;2022-11-20T15:22:57;34.58;;;19.48;;
26375;SDS011;30544;42.196;24.336;2022-11-20T15:25:24;24.52;;;14.40;;
26375;SDS011;30544;42.196;24.336;2022-11-20T15:27:52;16.27;;;9.68;;
26375;SDS011;30544;42.196;24.336;2022-11-20T15:30:21;10.32;;;5.07;;
26375;SDS011;30544;42.196;24.336;2022-11-20T15:32:48;7.38;;;3.80;;
26375;SDS011;30544;42.196;24.336;2022-11-20T15:35:15;10.38;;;5.38;;
26375;SDS011;30544;42.196;24.336;2022-11-20T15:37:43;10.50;;;5.32;;
26375;SDS011;30544;42.196;24.336;2022-11-20T15:40:10;12.20;;;4.82;;
26375;SDS011;30544;42.196;24.336;2022-11-20T15:42:37;11.02;;;4.55;;
26375;SDS011;30544;42.196;24.336;2022-11-20T15:45:27;8.77;;;4.70;;
26375;SDS011;30544;42.196;24.336;2022-11-20T15:47:55;13.57;;;8.80;;
26375;SDS011;30544;42.196;24.336;2022-11-20T15:50:22;45.35;;;25.20;;
26375;SDS011;30544;42.196;24.336;2022-11-20T15:52:54;21.05;;;12.70;;
26375;SDS011;30544;42.196;24.336;2022-11-20T15:55:21;23.02;;;16.90;;
26375;SDS011;30544;42.196;24.336;2022-11-20T15:57:48;37.50;;;19.55;;
26375;SDS011;30544;42.196;24.336;2022-11-20T16:00:15;32.30;;;17.73;;
26375;SDS011;30544;42.196;24.336;2022-11-20T16:02:42;34.70;;;21.63;;
26375;SDS011;30544;42.196;24.336;2022-11-20T16:05:09;37.28;;;22.88;;
26375;SDS011;30544;42.196;24.336;2022-11-20T16:07:37;44.40;;;25.58;;
26375;SDS011;30544;42.196;24.336;2022-11-20T16:10:06;30.45;;;18.23;;
26375;SDS011;30544;42.196;24.336;2022-11-20T16:12:34;26.17;;;16.08;;
26375;SDS011;30544;42.196;24.336;2022-11-20T16:15:18;23.60;;;14.18;;
26375;SDS011;30544;42.196;24.336;2022-11-20T16:18:02;27.00;;;14.33;;
26375;SDS011;30544;42.196;24.336;2022-11-20T16:20:29;19.13;;;11.10;;
26375;SDS011;30544;42.196;24.336;2022-11-20T16:22:56;17.80;;;9.07;;
26375;SDS011;30544;42.196;24.336;2022-11-20T16:25:24;14.90;;;8.95;;
26375;SDS011;30544;42.196;24.336;2022-11-20T16:27:52;22.95;;;13.05;;
26375;SDS011;30544;42.196;24.336;2022-11-20T16:30:19;24.45;;;12.73;;